Time,TemperatureF,DewpointF,PressureIn,WindDirection,WindDirectionDegrees,WindSpeedMPH,WindSpeedGustMPH,Humidity,HourlyPrecipIn,Conditions,Clouds,dailyrainin,SoftwareType,DateUTC
2013-03-17 00:00:00,41.4,35.3,30.01,NNE,22,0.0,0.0,79,0.00,OVC,,0.00,WeatherDisplay:10.37,2013-03-17 05:00:00,
2013-03-17 00:05:00,41.2,35.2,30.01,WNW,292,0.0,0.0,79,0.00,RA,,0.00,WeatherDisplay:10.37,2013-03-17 05:05:00,
2013-03-17 00:10:00,41.2,35.2,30.01,WNW,292,0.0,0.0,79,0.00,RA,,0.00,WeatherDisplay:10.37,2013-03-17 05:10:00,
2013-03-17 00:15:00,41.2,34.5,29.99,NE,45,0.0,0.2,77,0.00,OVC,,0.00,WeatherDisplay:10.37,2013-03-17 05:15:00,
2013-03-17 00:20:00,41.0,34.3,29.99,NW,315,1.4,1.4,77,0.00,OVC,,0.00,WeatherDisplay:10.37,2013-03-17 05:20:00,
2013-03-17 00:25:00,41.2,34.5,29.99,West,270,0.0,0.1,77,0.00,OVC,,0.00,WeatherDisplay:10.37,2013-03-17 05:25:00,
2013-03-17 00:30:00,40.8,34.2,29.99,NNW,338,1.3,1.3,77,0.00,OVC,,0.00,WeatherDisplay:10.37,2013-03-17 05:30:00,
2013-03-17 00:35:00,40.8,34.2,29.99,South,180,0.0,0.1,77,0.00,OVC,,0.00,WeatherDisplay:10.37,2013-03-17 05:35:00,
2013-03-17 00:40:00,40.8,34.2,29.99,West,270,0.0,0.1,77,0.00,OVC,,0.00,WeatherDisplay:10.37,2013-03-17 05:40:00,
2013-03-17 00:45:00,40.3,33.6,29.99,West,270,0.0,0.2,77,0.00,OVC,,0.00,WeatherDisplay:10.37,2013-03-17 05:45:00,
2013-03-17 00:50:00,40.3,34.0,29.99,ESE,112,0.0,0.2,78,0.00,OVC,,0.00,WeatherDisplay:10.37,2013-03-17 05:50:00,
2013-03-17 00:55:00,40.5,33.8,30.00,SE,135,1.1,1.1,77,0.00,OVC,,0.00,WeatherDisplay:10.37,2013-03-17 05:55:00,
2013-03-17 01:00:00,40.3,33.6,30.00,West,270,0.0,0.2,77,0.00,OVC,,0.00,WeatherDisplay:10.37,2013-03-17 06:00:00,
2013-03-17 01:05:00,40.1,33.5,30.00,ENE,68,0.0,0.1,77,0.00,-RA,,0.00,WeatherDisplay:10.37,2013-03-17 06:05:00,
2013-03-17 01:10:00,40.1,33.5,30.00,WNW,292,0.0,0.1,77,0.00,-RA,,0.00,WeatherDisplay:10.37,2013-03-17 06:10:00,
2013-03-17 01:15:00,39.9,33.3,30.01,ESE,112,4.8,4.8,77,0.00,-RA,,0.00,WeatherDisplay:10.37,2013-03-17 06:15:00,
2013-03-17 01:20:00,39.9,33.3,30.01,WNW,292,0.0,0.2,77,0.00,-RA,,0.00,WeatherDisplay:10.37,2013-03-17 06:20:00,
2013-03-17 01:25:00,39.7,33.4,30.01,SW,225,0.0,0.2,78,0.00,-RA,,0.00,WeatherDisplay:10.37,2013-03-17 06:25:00,
2013-03-17 01:30:00,39.7,33.8,30.01,East,90,0.0,0.0,79,0.00,-RA,,0.00,WeatherDisplay:10.37,2013-03-17 06:30:00,
2013-03-17 01:35:00,39.4,33.4,30.00,West,270,1.3,0.0,79,0.03,-RA,,0.03,WeatherDisplay:10.37,2013-03-17 06:35:00,
2013-03-17 01:40:00,39.4,33.4,30.00,NNW,338,0.0,0.0,79,0.03,-RA,,0.03,WeatherDisplay:10.37,2013-03-17 06:40:00,
2013-03-17 01:45:00,39.4,33.7,30.00,East,90,0.0,0.0,80,0.06,-RA,,0.06,WeatherDisplay:10.37,2013-03-17 06:45:00,
2013-03-17 01:50:00,39.2,33.5,30.00,SE,135,0.0,0.0,80,0.06,-RA,,0.06,WeatherDisplay:10.37,2013-03-17 06:50:00,
2013-03-17 01:55:00,39.4,34.0,30.01,West,270,0.0,0.0,81,0.09,-RA,,0.09,WeatherDisplay:10.37,2013-03-17 06:55:00,
2013-03-17 02:00:00,39.2,33.9,30.01,ESE,112,0.0,0.0,81,0.09,-RA,,0.09,WeatherDisplay:10.37,2013-03-17 07:00:00,
2013-03-17 02:05:00,39.2,34.2,30.01,ENE,68,0.0,0.0,82,0.09,-RA,,0.09,WeatherDisplay:10.37,2013-03-17 07:05:00,
2013-03-17 02:10:00,39.2,34.2,30.01,NNW,338,0.0,0.0,82,0.11,-RA,,0.11,WeatherDisplay:10.37,2013-03-17 07:10:00,
2013-03-17 02:15:00,39.2,34.2,30.01,ESE,112,0.0,0.0,82,0.11,-RA,,0.11,WeatherDisplay:10.37,2013-03-17 07:15:00,
2013-03-17 02:20:00,39.2,34.2,30.01,ENE,68,0.0,0.0,82,0.11,-RA,,0.11,WeatherDisplay:10.37,2013-03-17 07:20:00,
2013-03-17 02:25:00,39.2,34.2,30.01,East,90,0.0,0.1,82,0.11,-RA,,0.11,WeatherDisplay:10.37,2013-03-17 07:25:00,
2013-03-17 02:30:00,39.0,34.0,30.01,South,180,0.0,0.1,82,0.11,-RA,,0.11,WeatherDisplay:10.37,2013-03-17 07:30:00,
2013-03-17 02:35:00,39.0,34.0,30.03,ESE,112,0.0,0.0,82,0.09,-RA,,0.11,WeatherDisplay:10.37,2013-03-17 07:35:00,
2013-03-17 02:40:00,39.0,34.0,30.03,North,0,0.0,0.0,82,0.09,-RA,,0.11,WeatherDisplay:10.37,2013-03-17 07:40:00,
2013-03-17 02:45:00,39.0,33.7,30.03,NNW,338,2.3,2.3,81,0.06,-RA,,0.11,WeatherDisplay:10.37,2013-03-17 07:45:00,
2013-03-17 02:50:00,38.7,33.3,30.03,ESE,112,0.0,0.1,81,0.09,-RA,,0.14,WeatherDisplay:10.37,2013-03-17 07:50:00,
2013-03-17 02:55:00,38.5,33.2,30.03,ESE,112,0.0,0.1,81,0.06,-RA,,0.14,WeatherDisplay:10.37,2013-03-17 07:55:00,
2013-03-17 03:00:00,38.5,33.2,30.03,NW,315,2.6,2.6,81,0.06,-RA,,0.14,WeatherDisplay:10.37,2013-03-17 08:00:00,
2013-03-17 03:05:00,38.3,33.0,30.03,SW,225,0.0,0.1,81,0.06,-RA,,0.14,WeatherDisplay:10.37,2013-03-17 08:05:00,
2013-03-17 03:10:00,38.3,33.0,30.03,SW,225,0.0,0.1,81,0.03,-RA,,0.14,WeatherDisplay:10.37,2013-03-17 08:10:00,
2013-03-17 03:15:00,38.1,32.8,30.02,ESE,112,0.0,0.1,81,0.03,-RA,,0.14,WeatherDisplay:10.37,2013-03-17 08:15:00,
2013-03-17 03:20:00,38.3,33.0,30.02,SE,135,0.0,0.1,81,0.03,-RA,,0.14,WeatherDisplay:10.37,2013-03-17 08:20:00,
2013-03-17 03:25:00,38.3,33.0,30.02,West,270,0.0,0.1,81,0.03,-RA,,0.14,WeatherDisplay:10.37,2013-03-17 08:25:00,
2013-03-17 03:30:00,38.3,33.0,30.02,WNW,292,0.0,0.1,81,0.03,-RA,,0.14,WeatherDisplay:10.37,2013-03-17 08:30:00,
2013-03-17 03:35:00,38.3,32.7,30.02,East,90,0.0,0.1,80,0.03,-RA,,0.14,WeatherDisplay:10.37,2013-03-17 08:35:00,
2013-03-17 03:40:00,38.3,32.7,30.02,North,0,0.0,0.1,80,0.03,-RA,,0.14,WeatherDisplay:10.37,2013-03-17 08:40:00,
2013-03-17 03:45:00,38.3,32.7,30.02,SE,135,0.0,0.0,80,0.03,-RA,,0.14,WeatherDisplay:10.37,2013-03-17 08:45:00,
2013-03-17 03:50:00,38.1,32.5,30.02,WNW,292,0.0,0.1,80,0.00,-RA,,0.14,WeatherDisplay:10.37,2013-03-17 08:50:00,
2013-03-17 03:55:00,37.9,32.3,30.03,NE,45,0.0,0.1,80,0.00,-RA,,0.14,WeatherDisplay:10.37,2013-03-17 08:55:00,
2013-03-17 04:00:00,37.9,32.3,30.03,NNE,22,0.0,0.1,80,0.00,-RA,,0.14,WeatherDisplay:10.37,2013-03-17 09:00:00,
2013-03-17 04:05:00,37.8,32.1,30.03,NW,315,0.0,0.1,80,0.00,-RA,,0.14,WeatherDisplay:10.37,2013-03-17 09:05:00,
2013-03-17 04:10:00,37.8,32.1,30.03,WNW,292,1.5,1.5,80,0.00,-RA,,0.14,WeatherDisplay:10.37,2013-03-17 09:10:00,
2013-03-17 04:15:00,37.6,32.0,30.03,SE,135,0.0,0.2,80,0.00,-RA,,0.14,WeatherDisplay:10.37,2013-03-17 09:15:00,
2013-03-17 04:20:00,37.6,32.0,30.03,East,90,0.0,0.1,80,0.00,-RA,,0.14,WeatherDisplay:10.37,2013-03-17 09:20:00,
2013-03-17 04:25:00,37.6,32.0,30.03,ENE,68,1.1,1.1,80,0.03,RA,,0.17,WeatherDisplay:10.37,2013-03-17 09:25:00,
2013-03-17 04:30:00,37.2,31.3,30.03,NNE,22,0.0,0.2,79,0.03,RA,,0.17,WeatherDisplay:10.37,2013-03-17 09:30:00,
2013-03-17 04:35:00,37.0,31.1,30.04,ESE,112,0.0,0.3,79,0.03,OVC,,0.17,WeatherDisplay:10.37,2013-03-17 09:35:00,
2013-03-17 04:40:00,37.0,31.1,30.04,WNW,292,2.4,2.4,79,0.03,OVC,,0.17,WeatherDisplay:10.37,2013-03-17 09:40:00,
2013-03-17 04:45:00,37.0,31.1,30.04,ESE,112,0.0,0.2,79,0.03,OVC,,0.17,WeatherDisplay:10.37,2013-03-17 09:45:00,
2013-03-17 04:50:00,37.0,31.4,30.04,North,0,0.0,0.2,80,0.03,OVC,,0.17,WeatherDisplay:10.37,2013-03-17 09:50:00,
2013-03-17 04:55:00,36.9,31.3,30.03,SE,135,0.0,0.1,80,0.03,-PL,,0.17,WeatherDisplay:10.37,2013-03-17 09:55:00,
2013-03-17 05:00:00,36.9,31.3,30.03,West,270,0.0,0.1,80,0.03,-PL,,0.17,WeatherDisplay:10.37,2013-03-17 10:00:00,
2013-03-17 05:05:00,36.9,31.3,30.03,WNW,292,0.0,0.1,80,0.03,-DZ,,0.17,WeatherDisplay:10.37,2013-03-17 10:05:00,
2013-03-17 05:10:00,36.9,31.3,30.03,West,270,0.0,0.0,80,0.03,-DZ,,0.17,WeatherDisplay:10.37,2013-03-17 10:10:00,
2013-03-17 05:15:00,36.9,31.3,30.03,WNW,292,0.0,0.0,80,0.03,-DZ,,0.17,WeatherDisplay:10.37,2013-03-17 10:15:00,
2013-03-17 05:20:00,36.9,31.3,30.03,East,90,0.0,0.0,80,0.03,-DZ,,0.17,WeatherDisplay:10.37,2013-03-17 10:20:00,
2013-03-17 05:25:00,37.0,31.8,30.03,ESE,112,0.0,0.0,81,0.00,-DZ,,0.17,WeatherDisplay:10.37,2013-03-17 10:25:00,
2013-03-17 05:30:00,37.2,31.9,30.03,ENE,68,1.1,0.0,81,0.00,-DZ,,0.17,WeatherDisplay:10.37,2013-03-17 10:30:00,
2013-03-17 05:35:00,37.0,31.4,30.04,East,90,0.0,0.4,80,0.00,-DZ,,0.17,WeatherDisplay:10.37,2013-03-17 10:35:00,
2013-03-17 05:40:00,37.0,31.4,30.04,WSW,248,0.0,0.4,80,0.00,-DZ,,0.17,WeatherDisplay:10.37,2013-03-17 10:40:00,
2013-03-17 05:45:00,37.0,31.4,30.04,ESE,112,0.0,0.1,80,0.00,-DZ,,0.17,WeatherDisplay:10.37,2013-03-17 10:45:00,
2013-03-17 05:50:00,36.9,31.0,30.04,NNE,22,1.1,1.1,79,0.00,-DZ,,0.17,WeatherDisplay:10.37,2013-03-17 10:50:00,
2013-03-17 05:55:00,36.9,30.6,30.03,ESE,112,0.0,0.2,78,0.00,-DZ,,0.17,WeatherDisplay:10.37,2013-03-17 10:55:00,
2013-03-17 06:00:00,36.9,30.6,30.03,ESE,112,0.0,0.3,78,0.00,-DZ,,0.17,WeatherDisplay:10.37,2013-03-17 11:00:00,
2013-03-17 06:05:00,36.9,30.6,30.03,ENE,68,1.4,1.4,78,0.00,-DZ,,0.17,WeatherDisplay:10.37,2013-03-17 11:05:00,
2013-03-17 06:10:00,36.9,30.6,30.03,ENE,68,1.4,1.4,78,0.00,OVC,,0.17,WeatherDisplay:10.37,2013-03-17 11:10:00,
2013-03-17 06:15:00,36.9,30.6,30.05,West,270,0.0,0.0,78,0.00,OVC,,0.17,WeatherDisplay:10.37,2013-03-17 11:15:00,
2013-03-17 06:20:00,37.0,30.8,30.05,ESE,112,0.0,0.0,78,0.00,OVC,,0.17,WeatherDisplay:10.37,2013-03-17 11:20:00,
2013-03-17 06:25:00,36.9,30.3,30.05,North,0,0.0,0.1,77,0.00,OVC,,0.17,WeatherDisplay:10.37,2013-03-17 11:25:00,
2013-03-17 06:30:00,36.9,30.3,30.05,North,0,2.3,2.3,77,0.00,OVC,,0.17,WeatherDisplay:10.37,2013-03-17 11:30:00,
2013-03-17 06:35:00,36.9,30.0,30.07,West,270,2.6,2.6,76,0.00,OVC,,0.17,WeatherDisplay:10.37,2013-03-17 11:35:00,
2013-03-17 06:40:00,36.9,29.7,30.07,ESE,112,0.0,0.2,75,0.00,OVC,,0.17,WeatherDisplay:10.37,2013-03-17 11:40:00,
2013-03-17 06:45:00,36.7,29.5,30.07,South,180,0.0,0.1,75,0.00,OVC,,0.17,WeatherDisplay:10.37,2013-03-17 11:45:00,
2013-03-17 06:50:00,36.7,29.5,30.07,NE,45,0.0,0.0,75,0.00,OVC,,0.17,WeatherDisplay:10.37,2013-03-17 11:50:00,
2013-03-17 06:55:00,36.7,29.2,30.07,SSE,158,0.0,0.1,74,0.00,OVC,,0.17,WeatherDisplay:10.37,2013-03-17 11:55:00,
2013-03-17 07:00:00,36.5,29.0,30.07,ESE,112,0.0,0.1,74,0.00,OVC,,0.17,WeatherDisplay:10.37,2013-03-17 12:00:00,
2013-03-17 07:05:00,36.5,29.0,30.07,East,90,0.0,0.1,74,0.00,OVC,,0.17,WeatherDisplay:10.37,2013-03-17 12:05:00,
2013-03-17 07:10:00,36.3,29.2,30.07,ENE,68,0.0,0.1,75,0.00,OVC,,0.17,WeatherDisplay:10.37,2013-03-17 12:10:00,
2013-03-17 07:15:00,36.3,28.8,30.07,South,180,0.0,0.0,74,0.00,OVC,,0.17,WeatherDisplay:10.37,2013-03-17 12:15:00,
2013-03-17 07:20:00,36.3,28.8,30.07,NNE,22,1.2,1.2,74,0.00,OVC,,0.17,WeatherDisplay:10.37,2013-03-17 12:20:00,
2013-03-17 07:25:00,36.5,28.7,30.07,West,270,0.0,0.3,73,0.00,OVC,,0.17,WeatherDisplay:10.37,2013-03-17 12:25:00,
2013-03-17 07:30:00,36.3,28.5,30.07,NW,315,2.3,2.3,73,0.00,OVC,,0.17,WeatherDisplay:10.37,2013-03-17 12:30:00,
2013-03-17 07:35:00,36.3,28.8,30.06,SE,135,0.0,0.2,74,0.00,OVC,,0.17,WeatherDisplay:10.37,2013-03-17 12:35:00,
2013-03-17 07:40:00,36.1,28.6,30.06,West,270,0.0,0.3,74,0.00,OVC,,0.17,WeatherDisplay:10.37,2013-03-17 12:40:00,
2013-03-17 07:45:00,36.1,29.0,30.06,WNW,292,0.0,0.1,75,0.00,OVC,,0.17,WeatherDisplay:10.37,2013-03-17 12:45:00,
2013-03-17 07:50:00,36.0,28.8,30.06,South,180,0.0,0.1,75,0.00,OVC,,0.17,WeatherDisplay:10.37,2013-03-17 12:50:00,
2013-03-17 07:55:00,35.8,28.3,30.06,NW,315,0.0,0.2,74,0.00,OVC,,0.17,WeatherDisplay:10.37,2013-03-17 12:55:00,
2013-03-17 08:00:00,35.8,28.3,30.06,SSE,158,0.0,0.3,74,0.00,OVC,,0.17,WeatherDisplay:10.37,2013-03-17 13:00:00,
2013-03-17 08:05:00,35.8,28.6,30.06,SE,135,0.0,0.2,75,0.00,OVC,,0.17,WeatherDisplay:10.37,2013-03-17 13:05:00,
2013-03-17 08:10:00,35.8,28.6,30.06,ESE,112,0.0,0.2,75,0.00,OVC,,0.17,WeatherDisplay:10.37,2013-03-17 13:10:00,
2013-03-17 08:15:00,35.8,28.6,30.05,East,90,0.0,0.3,75,0.00,OVC,,0.17,WeatherDisplay:10.37,2013-03-17 13:15:00,
2013-03-17 08:20:00,35.8,28.6,30.05,SE,135,0.0,0.2,75,0.00,OVC,,0.17,WeatherDisplay:10.37,2013-03-17 13:20:00,
2013-03-17 08:25:00,36.1,29.0,30.05,SSE,158,0.0,0.2,75,0.00,OVC,,0.17,WeatherDisplay:10.37,2013-03-17 13:25:00,
2013-03-17 08:30:00,36.0,28.5,30.05,SE,135,0.0,0.3,74,0.00,OVC,,0.17,WeatherDisplay:10.37,2013-03-17 13:30:00,
2013-03-17 08:35:00,36.1,29.0,30.07,East,90,0.0,0.2,75,0.00,OVC,,0.17,WeatherDisplay:10.37,2013-03-17 13:35:00,
2013-03-17 08:40:00,36.0,28.5,30.07,SSE,158,1.1,0.0,74,0.00,OVC,,0.17,WeatherDisplay:10.37,2013-03-17 13:40:00,
2013-03-17 08:45:00,36.1,29.0,30.07,ENE,68,0.0,0.1,75,0.00,OVC,,0.17,WeatherDisplay:10.37,2013-03-17 13:45:00,
2013-03-17 08:50:00,36.1,29.0,30.07,ESE,112,0.0,0.2,75,0.00,OVC,,0.17,WeatherDisplay:10.37,2013-03-17 13:50:00,
2013-03-17 08:55:00,36.3,29.2,30.07,South,180,0.0,0.1,75,0.00,OVC,,0.17,WeatherDisplay:10.37,2013-03-17 13:55:00,
2013-03-17 09:00:00,36.3,29.2,30.07,SE,135,0.0,0.1,75,0.00,OVC,,0.17,WeatherDisplay:10.37,2013-03-17 14:00:00,
2013-03-17 09:05:00,36.5,29.3,30.07,NW,315,0.0,0.1,75,0.00,OVC,,0.17,WeatherDisplay:10.37,2013-03-17 14:05:00,
2013-03-17 09:10:00,36.3,29.2,30.07,ESE,112,0.0,0.1,75,0.00,-SN,,0.17,WeatherDisplay:10.37,2013-03-17 14:10:00,
2013-03-17 09:15:00,36.5,29.3,30.06,ESE,112,0.0,0.1,75,0.00,-SN,,0.17,WeatherDisplay:10.37,2013-03-17 14:15:00,
2013-03-17 09:20:00,36.5,29.3,30.06,NW,315,0.0,0.3,75,0.00,-SN,,0.17,WeatherDisplay:10.37,2013-03-17 14:20:00,
2013-03-17 09:25:00,36.5,29.3,30.06,ENE,68,0.0,0.3,75,0.00,-SN,,0.17,WeatherDisplay:10.37,2013-03-17 14:25:00,
2013-03-17 09:30:00,36.7,29.8,30.06,SE,135,0.0,0.1,76,0.00,-SN,,0.17,WeatherDisplay:10.37,2013-03-17 14:30:00,
2013-03-17 09:35:00,36.7,29.8,30.06,NW,315,0.0,0.2,76,0.00,-SN,,0.17,WeatherDisplay:10.37,2013-03-17 14:35:00,
2013-03-17 09:40:00,36.9,30.0,30.06,NNW,338,0.0,0.2,76,0.00,-SN,,0.17,WeatherDisplay:10.37,2013-03-17 14:40:00,
2013-03-17 09:45:00,36.9,30.0,30.06,NW,315,0.0,0.1,76,0.00,-SN,,0.17,WeatherDisplay:10.37,2013-03-17 14:45:00,
2013-03-17 09:50:00,36.7,29.8,30.06,West,270,0.0,0.1,76,0.00,-SN,,0.17,WeatherDisplay:10.37,2013-03-17 14:50:00,
2013-03-17 09:55:00,36.9,30.0,30.05,ESE,112,0.0,0.1,76,0.00,-SN,,0.17,WeatherDisplay:10.37,2013-03-17 14:55:00,
2013-03-17 10:00:00,36.7,30.1,30.05,ESE,112,0.0,0.2,77,0.00,-SN,,0.17,WeatherDisplay:10.37,2013-03-17 15:00:00,
2013-03-17 10:05:00,36.9,30.3,30.05,NE,45,0.0,0.3,77,0.00,-SN,,0.17,WeatherDisplay:10.37,2013-03-17 15:05:00,
2013-03-17 10:10:00,37.0,30.5,30.05,ESE,112,0.0,0.2,77,0.00,-SN,,0.17,WeatherDisplay:10.37,2013-03-17 15:10:00,
2013-03-17 10:15:00,36.9,30.0,30.04,ESE,112,0.0,0.1,76,0.00,-SN,,0.17,WeatherDisplay:10.37,2013-03-17 15:15:00,
2013-03-17 10:20:00,37.0,30.2,30.04,ESE,112,0.0,0.1,76,0.00,-SN,,0.17,WeatherDisplay:10.37,2013-03-17 15:20:00,
2013-03-17 10:25:00,37.0,30.2,30.04,ESE,112,2.3,2.3,76,0.00,-SN,,0.17,WeatherDisplay:10.37,2013-03-17 15:25:00,
2013-03-17 10:30:00,37.0,30.2,30.04,NW,315,0.0,0.5,76,0.00,-SN,,0.17,WeatherDisplay:10.37,2013-03-17 15:30:00,
2013-03-17 10:35:00,37.0,30.2,30.06,ENE,68,3.4,3.4,76,0.00,-SN,,0.17,WeatherDisplay:10.37,2013-03-17 15:35:00,
2013-03-17 10:40:00,37.2,30.3,30.06,East,90,0.0,0.2,76,0.00,-SN,,0.17,WeatherDisplay:10.37,2013-03-17 15:40:00,
2013-03-17 10:45:00,37.0,30.2,30.06,SSE,158,0.0,0.4,76,0.00,-SN,,0.17,WeatherDisplay:10.37,2013-03-17 15:45:00,
2013-03-17 10:50:00,37.0,29.8,30.06,North,0,0.0,0.4,75,0.00,-SN,,0.17,WeatherDisplay:10.37,2013-03-17 15:50:00,
2013-03-17 10:55:00,37.2,30.3,30.06,East,90,0.0,0.3,76,0.00,-SN,,0.17,WeatherDisplay:10.37,2013-03-17 15:55:00,
2013-03-17 11:00:00,37.2,30.0,30.06,ESE,112,0.0,0.3,75,0.00,-SN,,0.17,WeatherDisplay:10.37,2013-03-17 16:00:00,
2013-03-17 11:05:00,37.2,30.3,30.06,ESE,112,2.3,2.3,76,0.00,-SN,,0.17,WeatherDisplay:10.37,2013-03-17 16:05:00,
2013-03-17 11:10:00,37.2,30.3,30.06,WSW,248,0.0,0.5,76,0.00,-SN,,0.17,WeatherDisplay:10.37,2013-03-17 16:10:00,
2013-03-17 11:15:00,37.6,30.7,30.04,ESE,112,1.5,1.5,76,0.00,-SN,,0.17,WeatherDisplay:10.37,2013-03-17 16:15:00,
2013-03-17 11:20:00,37.6,31.0,30.04,WNW,292,2.3,2.3,77,0.00,-SN,,0.17,WeatherDisplay:10.37,2013-03-17 16:20:00,
2013-03-17 11:25:00,37.8,31.2,30.04,ESE,112,0.0,0.5,77,0.00,-SN,,0.17,WeatherDisplay:10.37,2013-03-17 16:25:00,
2013-03-17 11:30:00,37.8,31.2,30.04,ENE,68,3.4,3.4,77,0.00,-SN,,0.17,WeatherDisplay:10.37,2013-03-17 16:30:00,
2013-03-17 11:35:00,37.8,31.2,30.03,West,270,1.6,1.6,77,0.00,-SN,,0.17,WeatherDisplay:10.37,2013-03-17 16:35:00,
2013-03-17 11:40:00,37.8,31.2,30.03,ENE,68,1.2,1.2,77,0.00,-SN,,0.17,WeatherDisplay:10.37,2013-03-17 16:40:00,
2013-03-17 11:45:00,37.9,31.0,30.03,NW,315,1.2,1.2,76,0.00,-SN,,0.17,WeatherDisplay:10.37,2013-03-17 16:45:00,
2013-03-17 11:50:00,37.9,31.0,30.03,ESE,112,1.3,1.3,76,0.00,-SN,,0.17,WeatherDisplay:10.37,2013-03-17 16:50:00,
2013-03-17 11:55:00,38.3,31.4,30.02,ENE,68,0.0,0.4,76,0.00,OVC,,0.17,WeatherDisplay:10.37,2013-03-17 16:55:00,
2013-03-17 12:00:00,38.3,31.4,30.02,ESE,112,2.3,2.3,76,0.00,OVC,,0.17,WeatherDisplay:10.37,2013-03-17 17:00:00,
2013-03-17 12:05:00,38.3,31.1,30.02,NW,315,1.4,1.4,75,0.00,OVC,,0.17,WeatherDisplay:10.37,2013-03-17 17:05:00,
2013-03-17 12:10:00,38.3,31.1,30.02,NW,315,1.4,1.4,75,0.00,-RA,,0.17,WeatherDisplay:10.37,2013-03-17 17:10:00,
2013-03-17 12:15:00,38.5,31.2,30.01,SE,135,0.0,0.3,75,0.00,-RA,,0.17,WeatherDisplay:10.37,2013-03-17 17:15:00,
2013-03-17 12:20:00,38.7,31.4,30.01,East,90,1.2,1.2,75,0.00,-RA,,0.17,WeatherDisplay:10.37,2013-03-17 17:20:00,
2013-03-17 12:25:00,39.0,31.8,30.01,SSW,202,0.0,0.7,75,0.00,-RA,,0.17,WeatherDisplay:10.37,2013-03-17 17:25:00,
2013-03-17 12:30:00,39.0,31.4,30.01,ESE,112,0.0,1.0,74,0.00,-RA,,0.17,WeatherDisplay:10.37,2013-03-17 17:30:00,
2013-03-17 12:35:00,38.8,31.3,30.01,NNW,338,0.0,0.7,74,0.00,-RA,,0.17,WeatherDisplay:10.37,2013-03-17 17:35:00,
2013-03-17 12:40:00,39.2,31.9,30.01,SE,135,0.0,0.4,75,0.00,-RA,,0.17,WeatherDisplay:10.37,2013-03-17 17:40:00,
2013-03-17 12:45:00,39.6,32.0,30.01,NW,315,0.0,0.4,74,0.00,-RA,,0.17,WeatherDisplay:10.37,2013-03-17 17:45:00,
2013-03-17 12:50:00,39.7,32.1,30.01,ENE,68,0.0,0.6,74,0.00,-RA,,0.17,WeatherDisplay:10.37,2013-03-17 17:50:00,
2013-03-17 12:55:00,39.7,32.1,30.01,North,0,0.0,0.5,74,0.00,-RA,,0.17,WeatherDisplay:10.37,2013-03-17 17:55:00,
2013-03-17 13:00:00,39.6,31.6,30.01,West,270,0.0,0.3,73,0.00,-RA,,0.17,WeatherDisplay:10.37,2013-03-17 18:00:00,
2013-03-17 13:05:00,39.6,32.0,30.01,North,0,0.0,0.1,74,0.00,-RA,,0.17,WeatherDisplay:10.37,2013-03-17 18:05:00,
2013-03-17 13:10:00,39.6,31.6,30.01,SE,135,1.1,1.1,73,0.00,-RA,,0.17,WeatherDisplay:10.37,2013-03-17 18:10:00,
2013-03-17 13:15:00,39.7,32.1,30.00,West,270,1.1,1.1,74,0.00,-RA,,0.17,WeatherDisplay:10.37,2013-03-17 18:15:00,
2013-03-17 13:20:00,39.7,32.1,30.00,NNW,338,0.0,0.2,74,0.00,-RA,,0.17,WeatherDisplay:10.37,2013-03-17 18:20:00,
2013-03-17 13:25:00,39.6,31.6,30.00,ENE,68,0.0,0.3,73,0.00,-RA,,0.17,WeatherDisplay:10.37,2013-03-17 18:25:00,
2013-03-17 13:30:00,39.7,32.5,30.00,NE,45,3.4,3.4,75,0.00,-RA,,0.17,WeatherDisplay:10.37,2013-03-17 18:30:00,
2013-03-17 13:35:00,39.7,32.5,29.98,SE,135,0.0,0.6,75,0.00,-RA,,0.17,WeatherDisplay:10.37,2013-03-17 18:35:00,
2013-03-17 13:40:00,39.7,32.5,29.98,East,90,1.3,1.3,75,0.00,-RA,,0.17,WeatherDisplay:10.37,2013-03-17 18:40:00,
2013-03-17 13:45:00,39.9,32.6,29.98,ESE,112,1.1,1.1,75,0.00,-RA,,0.17,WeatherDisplay:10.37,2013-03-17 18:45:00,
2013-03-17 13:50:00,39.7,32.5,29.98,NW,315,0.0,0.2,75,0.00,-RA,,0.17,WeatherDisplay:10.37,2013-03-17 18:50:00,
2013-03-17 13:55:00,39.7,32.5,29.97,SE,135,0.0,0.1,75,0.00,-RA,,0.17,WeatherDisplay:10.37,2013-03-17 18:55:00,
2013-03-17 14:00:00,39.4,32.1,29.97,NNW,338,0.0,0.2,75,0.00,-RA,,0.17,WeatherDisplay:10.37,2013-03-17 19:00:00,
2013-03-17 14:05:00,39.7,32.5,29.97,NW,315,0.0,0.5,75,0.00,-RA,,0.17,WeatherDisplay:10.37,2013-03-17 19:05:00,
2013-03-17 14:10:00,39.4,32.1,29.97,East,90,0.0,0.4,75,0.00,OVC,,0.17,WeatherDisplay:10.37,2013-03-17 19:10:00,
2013-03-17 14:15:00,39.6,32.3,29.95,East,90,2.6,2.6,75,0.00,OVC,,0.17,WeatherDisplay:10.37,2013-03-17 19:15:00,
2013-03-17 14:20:00,39.4,32.1,29.95,NW,315,0.0,0.4,75,0.00,OVC,,0.17,WeatherDisplay:10.37,2013-03-17 19:20:00,
2013-03-17 14:25:00,39.2,31.9,29.95,ESE,112,0.0,0.5,75,0.00,OVC,,0.17,WeatherDisplay:10.37,2013-03-17 19:25:00,
2013-03-17 14:30:00,39.4,32.4,29.95,SE,135,2.3,2.3,76,0.00,OVC,,0.17,WeatherDisplay:10.37,2013-03-17 19:30:00,
2013-03-17 14:35:00,39.0,32.4,29.94,ESE,112,0.0,0.7,77,0.00,OVC,,0.17,WeatherDisplay:10.37,2013-03-17 19:35:00,
2013-03-17 14:40:00,38.8,32.6,29.94,East,90,0.0,0.6,78,0.00,OVC,,0.17,WeatherDisplay:10.37,2013-03-17 19:40:00,
2013-03-17 14:45:00,39.0,33.1,29.94,NNE,22,0.0,0.3,79,0.00,OVC,,0.17,WeatherDisplay:10.37,2013-03-17 19:45:00,
2013-03-17 14:50:00,39.0,33.1,29.94,ESE,112,1.1,1.1,79,0.00,OVC,,0.17,WeatherDisplay:10.37,2013-03-17 19:50:00,
2013-03-17 14:55:00,39.0,33.1,29.96,NW,315,0.0,0.1,79,0.00,OVC,,0.17,WeatherDisplay:10.37,2013-03-17 19:55:00,
2013-03-17 15:00:00,38.7,32.7,29.96,SE,135,0.0,0.1,79,0.00,OVC,,0.17,WeatherDisplay:10.37,2013-03-17 20:00:00,
2013-03-17 15:05:00,38.5,32.5,29.96,ENE,68,0.0,0.2,79,0.00,OVC,,0.17,WeatherDisplay:10.37,2013-03-17 20:05:00,
2013-03-17 15:10:00,38.5,32.8,29.96,ENE,68,0.0,0.3,80,0.00,-RA,,0.17,WeatherDisplay:10.37,2013-03-17 20:10:00,
2013-03-17 15:15:00,38.5,32.8,29.94,ESE,112,0.0,0.2,80,0.00,-RA,,0.17,WeatherDisplay:10.37,2013-03-17 20:15:00,
2013-03-17 15:20:00,38.5,32.8,29.94,SSE,158,0.0,0.1,80,0.00,-RA,,0.17,WeatherDisplay:10.37,2013-03-17 20:20:00,
2013-03-17 15:25:00,38.5,32.8,29.94,SW,225,0.0,0.1,80,0.00,-RA,,0.17,WeatherDisplay:10.37,2013-03-17 20:25:00,
2013-03-17 15:30:00,38.3,32.7,29.94,NW,315,0.0,0.1,80,0.03,-RA,,0.20,WeatherDisplay:10.37,2013-03-17 20:30:00,
2013-03-17 15:35:00,38.3,32.7,29.98,ESE,112,0.0,0.0,80,0.03,-RA,,0.20,WeatherDisplay:10.37,2013-03-17 20:35:00,
2013-03-17 15:40:00,38.3,32.7,29.98,NNE,22,0.0,0.0,80,0.03,-RA,,0.20,WeatherDisplay:10.37,2013-03-17 20:40:00,
2013-03-17 15:45:00,37.9,32.3,29.98,SSE,158,0.0,0.0,80,0.03,-RA,,0.20,WeatherDisplay:10.37,2013-03-17 20:45:00,
2013-03-17 15:50:00,37.4,32.1,29.98,SW,225,0.0,0.0,81,0.03,-RA,,0.20,WeatherDisplay:10.37,2013-03-17 20:50:00,
2013-03-17 15:55:00,37.2,31.9,29.95,NW,315,0.0,0.0,81,0.03,-RA,,0.20,WeatherDisplay:10.37,2013-03-17 20:55:00,
2013-03-17 16:00:00,37.2,31.9,29.95,ESE,112,0.0,0.1,81,0.06,-RA,,0.23,WeatherDisplay:10.37,2013-03-17 21:00:00,
2013-03-17 16:05:00,37.2,32.2,29.95,ESE,112,0.0,0.1,82,0.06,-RA,,0.23,WeatherDisplay:10.37,2013-03-17 21:05:00,
2013-03-17 16:10:00,37.0,32.4,29.95,North,0,1.3,1.3,83,0.06,-RA,,0.23,WeatherDisplay:10.37,2013-03-17 21:10:00,
2013-03-17 16:15:00,37.2,32.5,29.94,SSE,158,2.3,2.3,83,0.09,-RA,,0.26,WeatherDisplay:10.37,2013-03-17 21:15:00,
2013-03-17 16:20:00,37.0,32.4,29.94,NE,45,0.0,0.5,83,0.09,-RA,,0.26,WeatherDisplay:10.37,2013-03-17 21:20:00,
2013-03-17 16:25:00,37.0,32.7,29.94,ENE,68,1.4,1.4,84,0.09,-RA,,0.26,WeatherDisplay:10.37,2013-03-17 21:25:00,
2013-03-17 16:30:00,37.0,32.7,29.94,SE,135,1.2,1.2,84,0.06,-RA,,0.26,WeatherDisplay:10.37,2013-03-17 21:30:00,
2013-03-17 16:35:00,37.2,32.8,29.96,East,90,2.4,2.4,84,0.06,-RA,,0.26,WeatherDisplay:10.37,2013-03-17 21:35:00,
2013-03-17 16:40:00,37.0,32.9,29.96,ESE,112,1.2,1.2,85,0.06,-RA,,0.26,WeatherDisplay:10.37,2013-03-17 21:40:00,
2013-03-17 16:45:00,37.2,33.1,29.96,ESE,112,1.1,1.1,85,0.09,-RA,,0.28,WeatherDisplay:10.37,2013-03-17 21:45:00,
2013-03-17 16:50:00,37.0,32.9,29.96,SE,135,0.0,0.4,85,0.09,-RA,,0.28,WeatherDisplay:10.37,2013-03-17 21:50:00,
2013-03-17 16:55:00,37.2,33.1,29.95,SW,225,0.0,0.4,85,0.09,-RA,,0.28,WeatherDisplay:10.37,2013-03-17 21:55:00,
2013-03-17 17:00:00,37.2,33.1,29.95,SSE,158,0.0,0.5,85,0.06,-RA,,0.28,WeatherDisplay:10.37,2013-03-17 22:00:00,
2013-03-17 17:05:00,37.4,33.3,29.95,ESE,112,0.0,0.4,85,0.06,-RA,,0.28,WeatherDisplay:10.37,2013-03-17 22:05:00,
2013-03-17 17:10:00,37.6,33.5,29.95,NW,315,0.0,0.2,85,0.06,-RA,,0.28,WeatherDisplay:10.37,2013-03-17 22:10:00,
2013-03-17 17:15:00,37.4,33.3,29.98,North,0,0.0,0.1,85,0.03,-RA,,0.28,WeatherDisplay:10.37,2013-03-17 22:15:00,
2013-03-17 17:20:00,37.6,33.2,29.98,North,0,1.1,1.1,84,0.03,-RA,,0.28,WeatherDisplay:10.37,2013-03-17 22:20:00,
2013-03-17 17:25:00,37.6,33.5,29.98,ENE,68,0.0,0.2,85,0.03,-RA,,0.28,WeatherDisplay:10.37,2013-03-17 22:25:00,
2013-03-17 17:30:00,37.6,33.2,29.98,NW,315,0.0,0.2,84,0.03,-RA,,0.28,WeatherDisplay:10.37,2013-03-17 22:30:00,
2013-03-17 17:35:00,37.6,33.2,29.96,North,0,0.0,0.2,84,0.03,-RA,,0.28,WeatherDisplay:10.37,2013-03-17 22:35:00,
2013-03-17 17:40:00,37.6,33.2,29.96,ESE,112,0.0,0.1,84,0.03,-RA,,0.28,WeatherDisplay:10.37,2013-03-17 22:40:00,
2013-03-17 17:45:00,37.6,33.2,29.96,South,180,0.0,0.1,84,0.00,-RA,,0.28,WeatherDisplay:10.37,2013-03-17 22:45:00,
2013-03-17 17:50:00,37.6,33.2,29.96,NNW,338,0.0,0.1,84,0.00,-RA,,0.28,WeatherDisplay:10.37,2013-03-17 22:50:00,
2013-03-17 17:55:00,37.6,33.2,29.99,ENE,68,0.0,0.0,84,0.00,-RA,,0.28,WeatherDisplay:10.37,2013-03-17 22:55:00,
2013-03-17 18:00:00,37.6,33.2,29.99,NNW,338,1.4,1.4,84,0.03,-RA,,0.31,WeatherDisplay:10.37,2013-03-17 23:00:00,
2013-03-17 18:05:00,37.2,32.8,29.99,NNW,338,0.0,0.1,84,0.03,-RA,,0.31,WeatherDisplay:10.37,2013-03-17 23:05:00,
2013-03-17 18:10:00,37.0,32.7,29.99,ESE,112,0.0,0.1,84,0.03,-RA,,0.31,WeatherDisplay:10.37,2013-03-17 23:10:00,
2013-03-17 18:15:00,37.0,32.7,30.00,SE,135,0.0,0.5,84,0.06,-RA,,0.34,WeatherDisplay:10.37,2013-03-17 23:15:00,
2013-03-17 18:20:00,37.0,32.9,30.00,ESE,112,2.3,2.3,85,0.09,-RA,,0.37,WeatherDisplay:10.37,2013-03-17 23:20:00,
2013-03-17 18:25:00,37.0,32.9,30.00,ENE,68,1.1,1.1,85,0.14,RA,,0.43,WeatherDisplay:10.37,2013-03-17 23:25:00,
2013-03-17 18:30:00,37.0,33.2,30.00,ESE,112,1.1,1.1,86,0.14,RA,,0.43,WeatherDisplay:10.37,2013-03-17 23:30:00,
2013-03-17 18:35:00,36.9,33.1,29.97,SE,135,0.0,0.6,86,0.14,OVC,,0.43,WeatherDisplay:10.37,2013-03-17 23:35:00,
2013-03-17 18:40:00,36.9,33.1,29.97,ENE,68,0.0,0.6,86,0.17,RA,,0.45,WeatherDisplay:10.37,2013-03-17 23:40:00,
2013-03-17 18:45:00,36.7,32.9,29.97,SW,225,0.0,0.2,86,0.20,RA,,0.48,WeatherDisplay:10.37,2013-03-17 23:45:00,
2013-03-17 18:50:00,36.9,33.1,29.97,ESE,112,2.3,2.3,86,0.20,RA,,0.48,WeatherDisplay:10.37,2013-03-17 23:50:00,
2013-03-17 18:55:00,36.9,33.1,29.85,ESE,112,1.3,1.3,86,0.20,OVC,,0.48,WeatherDisplay:10.37,2013-03-17 23:55:00,
2013-03-17 19:00:00,36.9,33.1,29.85,ESE,112,0.0,0.3,86,0.20,RA,,0.51,WeatherDisplay:10.37,2013-03-18 00:00:00,
2013-03-17 19:05:00,37.0,33.2,29.85,SE,135,1.6,1.6,86,0.20,RA,,0.51,WeatherDisplay:10.37,2013-03-18 00:05:00,
2013-03-17 19:10:00,37.0,33.2,29.85,ESE,112,2.3,2.3,86,0.23,RA,,0.54,WeatherDisplay:10.37,2013-03-18 00:10:00,
2013-03-17 19:15:00,37.0,33.2,29.83,NW,315,1.6,1.6,86,0.20,RA,,0.54,WeatherDisplay:10.37,2013-03-18 00:15:00,
2013-03-17 19:20:00,37.0,33.2,29.83,ESE,112,0.0,0.8,86,0.20,RA,,0.57,WeatherDisplay:10.37,2013-03-18 00:20:00,
2013-03-17 19:25:00,37.2,33.4,29.83,East,90,1.7,1.7,86,0.14,-RA,,0.57,WeatherDisplay:10.37,2013-03-18 00:25:00,
2013-03-17 19:30:00,37.0,33.2,29.83,NNW,338,0.0,0.3,86,0.17,-RA,,0.60,WeatherDisplay:10.37,2013-03-18 00:30:00,
2013-03-17 19:35:00,37.0,33.5,29.84,WSW,248,0.0,0.3,87,0.17,-RA,,0.60,WeatherDisplay:10.37,2013-03-18 00:35:00,
2013-03-17 19:40:00,37.2,33.7,29.84,SW,225,0.0,0.2,87,0.17,-RA,,0.62,WeatherDisplay:10.37,2013-03-18 00:40:00,
2013-03-17 19:45:00,37.2,33.7,29.84,ESE,112,0.0,0.1,87,0.14,-RA,,0.62,WeatherDisplay:10.37,2013-03-18 00:45:00,
2013-03-17 19:50:00,37.2,33.7,29.84,ESE,112,0.0,0.0,87,0.17,-RA,,0.65,WeatherDisplay:10.37,2013-03-18 00:50:00,
2013-03-17 19:55:00,37.2,33.7,29.85,NNE,22,0.0,0.0,87,0.17,RA,,0.65,WeatherDisplay:10.37,2013-03-18 00:55:00,
2013-03-17 20:00:00,37.2,33.7,29.85,NW,315,0.0,0.0,87,0.17,RA,,0.68,WeatherDisplay:10.37,2013-03-18 01:00:00,
2013-03-17 20:05:00,37.2,33.7,29.85,SW,225,0.0,0.3,87,0.20,RA,,0.71,WeatherDisplay:10.37,2013-03-18 01:05:00,
2013-03-17 20:10:00,37.4,33.9,29.85,ESE,112,0.0,0.3,87,0.20,RA,,0.74,WeatherDisplay:10.37,2013-03-18 01:10:00,
2013-03-17 20:15:00,37.2,33.7,29.83,ESE,112,0.0,0.2,87,0.23,RA,,0.77,WeatherDisplay:10.37,2013-03-18 01:15:00,
2013-03-17 20:20:00,37.4,33.9,29.83,NNE,22,0.0,0.3,87,0.23,RA,,0.79,WeatherDisplay:10.37,2013-03-18 01:20:00,
2013-03-17 20:25:00,37.4,33.9,29.83,East,90,2.3,2.3,87,0.26,RA,,0.82,WeatherDisplay:10.37,2013-03-18 01:25:00,
2013-03-17 20:30:00,37.6,34.1,29.83,ESE,112,2.3,2.3,87,0.23,RA,,0.82,WeatherDisplay:10.37,2013-03-18 01:30:00,
2013-03-17 20:35:00,37.6,34.1,29.84,ENE,68,2.4,2.4,87,0.23,OVC,,0.82,WeatherDisplay:10.37,2013-03-18 01:35:00,
2013-03-17 20:40:00,37.6,34.1,29.84,ESE,112,1.7,1.7,87,0.20,OVC,,0.82,WeatherDisplay:10.37,2013-03-18 01:40:00,
2013-03-17 20:45:00,37.6,34.1,29.84,ESE,112,0.0,0.6,87,0.26,RA,,0.88,WeatherDisplay:10.37,2013-03-18 01:45:00,
2013-03-17 20:50:00,37.6,34.1,29.84,North,0,0.0,0.3,87,0.26,RA,,0.91,WeatherDisplay:10.37,2013-03-18 01:50:00,
2013-03-17 20:55:00,37.6,34.1,29.83,ENE,68,1.1,1.1,87,0.28,RA,,0.94,WeatherDisplay:10.37,2013-03-18 01:55:00,
2013-03-17 21:00:00,37.4,33.9,29.83,ESE,112,2.3,2.3,87,0.26,RA,,0.94,WeatherDisplay:10.37,2013-03-18 02:00:00,
2013-03-17 21:05:00,37.4,33.9,29.83,East,90,0.0,1.1,87,0.26,RA,,0.96,WeatherDisplay:10.37,2013-03-18 02:05:00,
2013-03-17 21:10:00,37.2,33.7,29.83,East,90,0.0,1.2,87,0.26,RA,,0.99,WeatherDisplay:10.37,2013-03-18 02:10:00,
2013-03-17 21:15:00,37.4,33.9,29.81,ENE,68,3.4,3.4,87,0.26,RA,,1.02,WeatherDisplay:10.37,2013-03-18 02:15:00,
2013-03-17 21:20:00,37.6,34.1,29.81,ESE,112,1.3,1.3,87,0.26,RA,,1.05,WeatherDisplay:10.37,2013-03-18 02:20:00,
2013-03-17 21:25:00,37.6,34.1,29.81,SE,135,0.0,1.6,87,0.26,RA,,1.08,WeatherDisplay:10.37,2013-03-18 02:25:00,
2013-03-17 21:30:00,37.4,33.9,29.81,East,90,3.4,3.4,87,0.26,RA,,1.08,WeatherDisplay:10.37,2013-03-18 02:30:00,
2013-03-17 21:35:00,37.6,34.1,29.80,ESE,112,6.9,6.9,87,0.28,RA,,1.11,WeatherDisplay:10.37,2013-03-18 02:35:00,
2013-03-17 21:40:00,37.6,34.1,29.80,ESE,112,2.3,2.7,87,0.28,RA,,1.11,WeatherDisplay:10.37,2013-03-18 02:40:00,
2013-03-17 21:45:00,37.6,34.3,29.80,ESE,112,3.6,3.6,88,0.26,RA,,1.13,WeatherDisplay:10.37,2013-03-18 02:45:00,
2013-03-17 21:50:00,37.6,34.3,29.80,ESE,112,2.3,2.3,88,0.23,RA,,1.13,WeatherDisplay:10.37,2013-03-18 02:50:00,
2013-03-17 21:55:00,37.6,34.3,29.79,South,180,1.1,1.7,88,0.20,OVC,,1.13,WeatherDisplay:10.37,2013-03-18 02:55:00,
2013-03-17 22:00:00,37.4,34.2,29.79,ESE,112,2.3,2.3,88,0.20,OVC,,1.13,WeatherDisplay:10.37,2013-03-18 03:00:00,
2013-03-17 22:05:00,37.6,34.3,29.79,ENE,68,3.9,3.9,88,0.20,RA,,1.16,WeatherDisplay:10.37,2013-03-18 03:05:00,
2013-03-17 22:10:00,37.6,34.3,29.79,ESE,112,1.1,1.1,88,0.17,-RA,,1.16,WeatherDisplay:10.37,2013-03-18 03:10:00,
2013-03-17 22:15:00,37.6,34.3,29.80,SW,225,0.0,0.7,88,0.14,-RA,,1.16,WeatherDisplay:10.37,2013-03-18 03:15:00,
2013-03-17 22:20:00,37.8,34.5,29.80,ENE,68,0.0,0.5,88,0.11,-RA,,1.16,WeatherDisplay:10.37,2013-03-18 03:20:00,
2013-03-17 22:25:00,37.8,34.5,29.80,ESE,112,0.0,0.5,88,0.11,-RA,,1.19,WeatherDisplay:10.37,2013-03-18 03:25:00,
2013-03-17 22:30:00,37.8,34.5,29.80,SE,135,0.0,0.4,88,0.11,-RA,,1.19,WeatherDisplay:10.37,2013-03-18 03:30:00,
2013-03-17 22:35:00,37.9,34.7,29.77,East,90,0.0,0.2,88,0.09,-RA,,1.19,WeatherDisplay:10.37,2013-03-18 03:35:00,
2013-03-17 22:40:00,37.8,34.5,29.77,NNE,22,1.3,1.3,88,0.09,-RA,,1.19,WeatherDisplay:10.37,2013-03-18 03:40:00,
2013-03-17 22:45:00,37.8,34.5,29.77,NW,315,0.0,0.3,88,0.06,-RA,,1.19,WeatherDisplay:10.37,2013-03-18 03:45:00,
2013-03-17 22:50:00,37.9,34.7,29.77,ENE,68,1.4,1.4,88,0.06,-RA,,1.19,WeatherDisplay:10.37,2013-03-18 03:50:00,
2013-03-17 22:55:00,37.9,34.4,29.76,ESE,112,0.0,0.6,87,0.06,-RA,,1.19,WeatherDisplay:10.37,2013-03-18 03:55:00,
2013-03-17 23:00:00,37.9,34.4,29.76,ENE,68,1.6,1.6,87,0.06,-RA,,1.19,WeatherDisplay:10.37,2013-03-18 04:00:00,
2013-03-17 23:05:00,38.3,34.8,29.76,ESE,112,1.1,1.1,87,0.03,-RA,,1.19,WeatherDisplay:10.37,2013-03-18 04:05:00,
2013-03-17 23:10:00,38.3,34.8,29.76,ENE,68,1.5,1.5,87,0.03,OVC,,1.19,WeatherDisplay:10.37,2013-03-18 04:10:00,
2013-03-17 23:15:00,38.3,34.8,29.74,North,0,0.0,0.4,87,0.03,OVC,,1.19,WeatherDisplay:10.37,2013-03-18 04:15:00,
2013-03-17 23:20:00,38.1,34.6,29.74,ESE,112,0.0,0.2,87,0.03,OVC,,1.19,WeatherDisplay:10.37,2013-03-18 04:20:00,
2013-03-17 23:25:00,38.3,34.8,29.74,WNW,292,0.0,0.0,87,0.00,OVC,,1.19,WeatherDisplay:10.37,2013-03-18 04:25:00,
2013-03-17 23:30:00,38.3,34.8,29.74,WSW,248,0.0,0.0,87,0.00,OVC,,1.19,WeatherDisplay:10.37,2013-03-18 04:30:00,
2013-03-17 23:35:00,38.3,34.8,29.77,WNW,292,0.0,0.1,87,0.00,OVC,,1.19,WeatherDisplay:10.37,2013-03-18 04:35:00,
2013-03-17 23:40:00,38.5,34.9,29.77,East,90,1.4,1.4,87,0.00,OVC,,1.19,WeatherDisplay:10.37,2013-03-18 04:40:00,
2013-03-17 23:45:00,38.5,34.9,29.77,SE,135,1.6,1.6,87,0.00,OVC,,1.19,WeatherDisplay:10.37,2013-03-18 04:45:00,
2013-03-17 23:50:00,38.5,34.9,29.77,ESE,112,0.0,0.2,87,0.00,OVC,,1.19,WeatherDisplay:10.37,2013-03-18 04:50:00,
2013-03-17 23:55:00,38.5,34.9,29.75,NW,315,0.0,0.2,87,0.00,OVC,,1.19,WeatherDisplay:10.37,2013-03-18 04:55:00,